Time;durP1;ratioP1;P1;durP2;ratioP2;P2;SDS_P1;SDS_P2;PMS_P1;PMS_P2;Temp;Humidity;BMP_temperature;BMP_pressure;BME280_temperature;BME280_humidity;BME280_pressure;Samples;Min_cycle;Max_cycle;Signal;HPM_P1;HPM_P2
2021/06/12 01:08:08;;;;;;;6.78;4.53;;;17.80;99.90;;;;;;6188966;22;40977;31
2021/06/12 01:36:51;;;;;;;;;;;;;;;;;;;;;
2021/06/12 02:20:20;;;;;;;7.32;5.05;;;17.20;99.90;;;;;;6202088;22;20264;31
2021/06/12 02:42:11;;;;;;;7.25;5.13;;;17.10;99.90;;;;;;6199074;22;20197;-63
2021/06/12 02:47:02;;;;;;;7.10;5.32;;;17.10;99.90;;;;;;6193052;22;20923;31
2021/06/12 03:18:35;;;;;;;6.35;5.65;;;17.00;99.90;;;;;;6191910;22;20673;31
2021/06/12 03:43:10;;;;;;;9.30;7.97;;;17.00;99.90;;;;;;6188854;22;54656;-63
2021/06/12 04:09:49;;;;;;;14.30;8.98;;;17.00;99.90;;;;;;6189970;22;20187;31
2021/06/12 04:24:21;;;;;;;12.57;9.40;;;17.10;99.90;;;;;;6191019;22;20923;31
2021/06/12 05:51:41;;;;;;;12.32;9.18;;;17.70;99.90;;;;;;6187233;22;41992;31
2021/06/12 06:03:50;;;;;;;13.77;9.40;;;17.90;99.90;;;;;;6188700;22;41125;31
2021/06/12 06:32:54;;;;;;;10.55;7.13;;;18.50;99.90;;;;;;6193297;22;22858;31
2021/06/12 06:47:27;;;;;;;8.57;6.82;;;18.80;99.90;;;;;;6192660;22;20199;31
2021/06/12 07:14:08;;;;;;;7.40;5.97;;;19.00;99.90;;;;;;6188861;22;45901;31
2021/06/12 07:53:32;;;;;;;6.82;6.13;;;18.70;99.90;;;;;;6194807;22;44828;31
2021/06/12 08:03:12;;;;;;;8.60;7.25;;;18.60;99.90;;;;;;6194926;22;20210;31
2021/06/12 08:12:57;;;;;;;8.40;7.50;;;18.30;99.90;;;;;;6193435;22;20213;-63
2021/06/12 08:17:48;;;;;;;7.70;6.55;;;18.30;99.90;;;;;;6189847;22;20188;31
2021/06/12 08:22:41;;;;;;;8.00;6.70;;;18.40;99.90;;;;;;6185755;22;40097;-62
2021/06/12 08:27:30;;;;;;;8.00;7.20;;;18.50;99.90;;;;;;6189105;22;20199;-63
2021/06/12 08:32:21;;;;;;;6.97;6.38;;;18.60;99.90;;;;;;6193618;22;20183;31
2021/06/12 09:03:56;;;;;;;8.05;7.22;;;19.30;99.90;;;;;;6206547;22;20491;-60
2021/06/12 09:06:22;;;;;;;7.93;6.32;;;19.40;99.90;;;;;;6245313;22;20191;-60
2021/06/12 09:08:48;;;;;;;7.03;6.10;;;19.50;99.90;;;;;;6244695;22;20249;-60
2021/06/12 09:13:46;;;;;;;5.70;5.10;;;19.40;99.90;;;;;;6245215;22;20198;-60
2021/06/12 09:16:22;;;;;;;7.35;5.70;;;19.40;99.90;;;;;;6245136;22;20183;-60
2021/06/12 09:18:48;;;;;;;8.45;5.55;;;19.40;99.90;;;;;;6245100;22;20541;-60
2021/06/12 09:21:42;;;;;;;9.63;6.03;;;19.60;99.90;;;;;;6245637;22;20146;-60
2021/06/12 09:24:32;;;;;;;9.48;5.00;;;19.70;99.90;;;;;;6232114;22;20179;-60
2021/06/12 09:26:59;;;;;;;5.95;4.90;;;19.80;99.90;;;;;;6245072;22;20266;-60
2021/06/12 09:29:38;;;;;;;5.13;4.63;;;19.80;99.90;;;;;;6246040;22;20182;-60
2021/06/12 09:32:17;;;;;;;5.47;4.75;;;19.80;99.90;;;;;;6245602;23;20474;-60
2021/06/12 09:34:44;;;;;;;5.35;4.72;;;19.80;99.90;;;;;;6245913;23;20174;-60
2021/06/12 09:37:15;;;;;;;8.25;4.97;;;19.80;99.90;;;;;;6245608;23;20206;-60
2021/06/12 09:39:41;;;;;;;4.82;4.35;;;19.90;99.90;;;;;;6245984;23;20139;-59
2021/06/12 09:42:07;;;;;;;5.90;4.50;;;20.00;99.90;;;;;;6245703;22;20498;-60
2021/06/12 09:44:35;;;;;;;6.97;4.40;;;20.20;99.90;;;;;;6244914;23;20136;-60
2021/06/12 09:47:03;;;;;;;6.50;5.18;;;20.20;99.90;;;;;;6246562;22;20445;-60
2021/06/12 09:49:30;;;;;;;7.47;4.72;;;20.00;99.90;;;;;;6246584;22;20148;-60
2021/06/12 09:52:12;;;;;;;6.70;5.03;;;19.80;99.90;;;;;;6246127;22;20182;-60
2021/06/12 09:54:43;;;;;;;7.43;4.90;;;19.60;99.90;;;;;;6246126;22;20171;-60
2021/06/12 10:04:25;;;;;;;4.72;3.28;;;18.50;99.90;;;;;;6192836;22;20191;31
2021/06/12 11:38:59;;;;;;;5.25;2.00;;;19.20;99.90;;;;;;6193311;22;23386;31
2021/06/12 11:55:57;;;;;;;4.85;1.80;;;18.60;99.90;;;;;;6191007;22;36701;31
2021/06/12 12:12:57;;;;;;;4.47;1.73;;;19.20;99.90;;;;;;6191120;22;20198;31
2021/06/12 12:17:47;;;;;;;6.68;2.10;;;19.30;99.90;;;;;;6191565;22;20282;31
2021/06/12 12:29:54;;;;;;;2.40;1.55;;;19.60;99.90;;;;;;6192075;22;20187;31
2021/06/12 12:51:50;;;;;;;4.55;1.75;;;19.00;99.90;;;;;;6203645;22;20206;-59
2021/06/12 12:54:15;;;;;;;5.55;2.00;;;19.00;99.90;;;;;;6244794;22;20187;-60
2021/06/12 12:56:45;;;;;;;3.30;1.50;;;19.10;99.90;;;;;;6246071;23;20270;-60
2021/06/12 12:59:11;;;;;;;4.60;1.73;;;19.30;99.90;;;;;;6245496;22;20191;-60
2021/06/12 13:01:37;;;;;;;4.55;1.45;;;19.60;99.90;;;;;;6244163;22;20209;-60
2021/06/12 13:30:47;;;;;;;3.50;2.05;;;20.90;97.80;;;;;;6189860;22;37627;31
2021/06/12 13:45:19;;;;;;;4.55;2.28;;;20.20;98.30;;;;;;6190037;22;37144;31
2021/06/12 14:04:42;;;;;;;5.18;2.50;;;18.70;99.90;;;;;;6187927;22;38136;31
2021/06/12 14:24:11;;;;;;;4.03;2.22;;;18.40;99.90;;;;;;6189285;22;20191;-61
2021/06/12 14:26:34;;;;;;;6.03;2.55;;;18.30;99.90;;;;;;6190120;22;20221;31
2021/06/12 14:28:59;;;;;;;5.82;2.13;;;18.10;99.90;;;;;;6188869;22;43183;31
2021/06/12 15:07:52;;;;;;;5.97;2.45;;;17.20;99.90;;;;;;6193281;22;40598;31
2021/06/12 15:10:21;;;;;;;6.05;2.38;;;17.40;99.90;;;;;;6227018;22;20188;-60
2021/06/12 15:12:45;;;;;;;6.40;2.58;;;17.60;99.90;;;;;;6245205;22;20496;-60
2021/06/12 15:15:11;;;;;;;4.18;1.90;;;17.70;99.90;;;;;;6246257;22;20282;-61
2021/06/12 15:17:36;;;;;;;4.50;1.90;;;18.10;99.90;;;;;;6246634;22;20191;-60
2021/06/12 15:20:03;;;;;;;4.63;1.85;;;18.70;99.90;;;;;;6247258;22;20463;-61
2021/06/12 15:22:29;;;;;;;2.72;1.70;;;19.00;99.90;;;;;;6246819;22;20583;-61
2021/06/12 15:24:55;;;;;;;2.50;1.40;;;19.10;99.90;;;;;;6246811;23;20136;-60
2021/06/12 15:27:20;;;;;;;2.95;1.33;;;19.20;99.90;;;;;;6246673;22;20136;-60
2021/06/12 15:29:46;;;;;;;3.63;1.35;;;19.30;99.90;;;;;;6246661;22;20139;-60
2021/06/12 15:32:12;;;;;;;3.13;1.40;;;19.50;99.90;;;;;;6245328;23;20584;-60
2021/06/12 15:34:37;;;;;;;4.10;1.20;;;20.10;99.20;;;;;;6270790;22;20588;-61
2021/06/12 15:37:04;;;;;;;2.08;1.13;;;20.70;97.80;;;;;;6246477;22;20154;-61
2021/06/12 15:39:30;;;;;;;3.97;1.55;;;21.40;96.90;;;;;;6246829;22;20235;-61
2021/06/12 15:41:55;;;;;;;2.22;1.85;;;21.80;95.00;;;;;;6246787;22;20171;-61
2021/06/12 15:44:21;;;;;;;2.35;1.27;;;22.10;94.50;;;;;;6246506;23;20246;-61
2021/06/12 15:46:46;;;;;;;3.67;1.45;;;22.20;94.00;;;;;;6246279;23;20148;-61
2021/06/12 15:49:12;;;;;;;4.07;1.60;;;22.20;93.80;;;;;;6246393;22;20572;-61
2021/06/12 15:51:39;;;;;;;2.88;1.30;;;22.20;93.70;;;;;;6246288;23;20147;-60
2021/06/12 15:54:05;;;;;;;4.30;1.58;;;22.00;94.00;;;;;;6246429;23;20139;-61
2021/06/12 15:56:30;;;;;;;4.13;1.42;;;22.00;94.40;;;;;;6270720;22;20183;-60
2021/06/12 15:58:56;;;;;;;3.42;1.88;;;22.50;94.40;;;;;;6246564;23;20541;-61
2021/06/12 16:01:21;;;;;;;4.28;1.40;;;22.70;93.00;;;;;;6246132;23;20418;-61
2021/06/12 16:03:47;;;;;;;3.13;1.58;;;22.70;92.60;;;;;;6246213;23;20144;-61
2021/06/12 16:06:12;;;;;;;4.18;1.42;;;22.60;92.50;;;;;;6246148;22;20147;-61
2021/06/12 16:08:38;;;;;;;2.40;1.70;;;22.10;92.80;;;;;;6246032;22;20171;-61
2021/06/12 16:11:03;;;;;;;6.10;2.05;;;21.50;94.00;;;;;;6246034;23;20151;-61
2021/06/12 16:13:29;;;;;;;3.55;1.98;;;20.70;95.10;;;;;;6246184;22;20140;-61
2021/06/12 16:15:54;;;;;;;4.85;1.98;;;20.10;96.30;;;;;;6245994;22;20584;-60
2021/06/12 16:18:20;;;;;;;3.42;1.50;;;19.60;97.60;;;;;;6245972;23;20186;-60
2021/06/12 16:20:47;;;;;;;5.05;2.13;;;19.30;98.90;;;;;;6246323;22;20143;-60
2021/06/12 16:23:12;;;;;;;3.58;1.60;;;19.10;99.80;;;;;;6246335;23;20144;-60
2021/06/12 16:25:38;;;;;;;3.53;1.75;;;19.00;99.90;;;;;;6246034;23;20143;-60
2021/06/12 16:28:04;;;;;;;4.57;1.58;;;18.90;99.90;;;;;;6246339;22;20590;-60
2021/06/12 16:30:30;;;;;;;4.43;1.70;;;19.10;99.90;;;;;;6246187;22;20483;-60
2021/06/12 16:32:57;;;;;;;2.60;1.50;;;19.60;99.90;;;;;;6246240;22;20155;-61
2021/06/12 16:35:23;;;;;;;3.13;1.58;;;20.50;99.00;;;;;;6246575;22;20175;-61
2021/06/12 16:37:49;;;;;;;4.30;1.30;;;21.00;96.70;;;;;;6246630;22;20140;-61
2021/06/12 16:40:16;;;;;;;2.28;1.38;;;21.30;95.90;;;;;;6246545;23;20166;-61
2021/06/12 16:42:42;;;;;;;3.40;1.10;;;21.50;95.00;;;;;;6246590;22;20206;-61
2021/06/12 16:45:10;;;;;;;4.00;1.60;;;21.90;93.70;;;;;;6245120;23;20144;-61
2021/06/12 16:47:37;;;;;;;1.90;1.38;;;22.20;92.40;;;;;;6246575;22;20238;-61
2021/06/12 16:50:03;;;;;;;1.98;1.02;;;22.60;91.40;;;;;;6246533;22;20217;-61
2021/06/12 16:52:29;;;;;;;4.40;1.52;;;23.20;90.50;;;;;;6246586;22;20563;-62
2021/06/12 16:57:49;;;;;;;3.45;1.67;;;24.40;81.30;;;;;;6246136;23;20124;-61
2021/06/12 17:00:16;;;;;;;1.73;1.25;;;24.60;77.60;;;;;;6247885;22;20128;-60
2021/06/12 17:02:42;;;;;;;4.03;1.30;;;24.60;76.00;;;;;;6247506;22;20147;-60
2021/06/12 17:05:08;;;;;;;2.90;1.30;;;24.40;74.10;;;;;;6246521;22;20154;-61
2021/06/12 17:07:34;;;;;;;3.90;1.55;;;24.30;73.50;;;;;;6246169;22;20148;-60
2021/06/12 17:10:00;;;;;;;1.90;1.40;;;24.20;73.80;;;;;;6245945;22;20201;-60
2021/06/12 17:12:25;;;;;;;3.63;1.60;;;24.00;73.00;;;;;;6245705;22;20458;-60
2021/06/12 17:14:51;;;;;;;3.03;1.25;;;23.70;73.10;;;;;;6245681;22;20144;-60
2021/06/12 17:17:16;;;;;;;4.35;1.42;;;23.50;74.20;;;;;;6244396;23;20155;-60
2021/06/12 17:19:42;;;;;;;2.58;1.40;;;23.70;73.50;;;;;;6245724;22;20135;-60
2021/06/12 17:22:07;;;;;;;2.42;1.15;;;23.70;72.80;;;;;;6245601;23;20143;-60
2021/06/12 17:24:33;;;;;;;4.70;1.50;;;23.70;73.90;;;;;;6245623;22;20440;-60
2021/06/12 17:26:58;;;;;;;3.15;0.95;;;23.80;73.60;;;;;;6245336;23;20154;-60
2021/06/12 17:29:24;;;;;;;2.45;1.60;;;24.10;73.00;;;;;;6269753;22;20140;-60
2021/06/12 17:31:50;;;;;;;2.85;1.38;;;24.20;72.10;;;;;;6245693;23;20231;-60
2021/06/12 17:34:20;;;;;;;2.25;1.40;;;24.10;72.00;;;;;;6245725;22;20228;-60
2021/06/12 17:36:47;;;;;;;3.38;1.63;;;23.70;73.00;;;;;;6245138;22;20565;-60
2021/06/12 17:39:13;;;;;;;4.60;1.38;;;23.10;74.70;;;;;;6245597;22;20140;-60
2021/06/12 17:41:39;;;;;;;2.65;1.38;;;22.90;77.00;;;;;;6245345;23;20150;-60
2021/06/12 17:44:05;;;;;;;3.58;1.30;;;23.00;77.60;;;;;;6245337;22;20277;-61
2021/06/12 17:46:31;;;;;;;2.78;1.40;;;23.20;78.50;;;;;;6245362;23;20175;-60
2021/06/12 17:48:56;;;;;;;2.13;1.20;;;23.50;77.40;;;;;;6245280;22;20144;-60
2021/06/12 17:51:22;;;;;;;3.45;1.42;;;23.70;78.10;;;;;;6245415;23;20247;-60
2021/06/12 17:53:47;;;;;;;2.50;1.42;;;23.80;77.20;;;;;;6245638;22;20179;-60
2021/06/12 17:56:13;;;;;;;4.40;1.30;;;23.60;77.70;;;;;;6245270;23;20180;-60
2021/06/12 17:58:39;;;;;;;4.28;1.90;;;23.40;77.40;;;;;;6245662;22;20151;-60
2021/06/12 18:01:04;;;;;;;4.30;1.70;;;23.00;77.40;;;;;;6245338;22;20145;-60
2021/06/12 18:03:35;;;;;;;2.25;1.40;;;22.90;78.80;;;;;;6245230;22;20148;-60
2021/06/12 18:06:00;;;;;;;3.38;1.50;;;22.90;78.40;;;;;;6245712;23;20132;-61
2021/06/12 18:08:26;;;;;;;4.40;1.63;;;22.80;78.60;;;;;;6245268;23;20205;-60
2021/06/12 18:10:51;;;;;;;3.08;1.58;;;22.70;78.80;;;;;;6245737;23;20140;-60
2021/06/12 18:13:17;;;;;;;3.95;1.60;;;22.70;78.20;;;;;;6245263;23;20148;-60
2021/06/12 18:15:43;;;;;;;3.63;1.45;;;22.30;78.10;;;;;;6245362;22;20164;-60
2021/06/12 18:18:08;;;;;;;4.22;1.83;;;21.60;79.00;;;;;;6270623;22;20163;-60
2021/06/12 18:20:35;;;;;;;4.38;1.55;;;21.20;80.70;;;;;;6247497;22;20525;-60
2021/06/12 18:23:04;;;;;;;3.22;1.55;;;20.90;81.70;;;;;;6247314;23;20571;-60
2021/06/12 18:25:31;;;;;;;3.30;1.55;;;20.70;82.40;;;;;;6247450;22;20635;-60
2021/06/12 18:27:56;;;;;;;3.55;1.50;;;20.60;83.40;;;;;;6247682;22;20495;-60
2021/06/12 18:30:22;;;;;;;2.88;1.67;;;20.50;83.70;;;;;;6247591;22;20201;-60
2021/06/12 18:32:48;;;;;;;3.75;1.80;;;20.50;84.00;;;;;;6247391;23;20140;-60
2021/06/12 18:35:16;;;;;;;4.43;1.55;;;20.50;83.60;;;;;;6246334;23;20172;-60
2021/06/12 18:37:46;;;;;;;4.57;1.65;;;20.30;81.60;;;;;;6248183;22;20156;-60
2021/06/12 18:40:13;;;;;;;4.38;1.92;;;20.10;81.10;;;;;;6247704;22;20159;-60
2021/06/12 18:42:40;;;;;;;4.75;1.48;;;20.00;80.40;;;;;;6247876;22;20512;-60
2021/06/12 18:45:07;;;;;;;4.30;1.50;;;19.80;80.30;;;;;;6247833;22;20455;-60
2021/06/12 18:47:33;;;;;;;5.82;1.90;;;19.30;81.50;;;;;;6247631;22;20227;-61
2021/06/12 18:49:59;;;;;;;4.60;1.90;;;18.80;83.50;;;;;;6247319;23;20179;-60
2021/06/12 18:52:24;;;;;;;4.90;2.25;;;18.30;86.60;;;;;;6247614;23;20166;-60
2021/06/12 18:54:50;;;;;;;5.00;2.08;;;17.80;89.50;;;;;;6247116;22;20568;-60
2021/06/12 18:57:15;;;;;;;4.20;2.53;;;17.40;90.80;;;;;;6247132;22;20229;-60
2021/06/12 18:59:41;;;;;;;6.35;2.20;;;17.20;91.80;;;;;;6246943;23;20136;-60
2021/06/12 19:02:07;;;;;;;6.68;2.28;;;16.90;92.60;;;;;;6247147;23;20135;-61
2021/06/12 19:04:32;;;;;;;4.60;2.63;;;16.70;93.10;;;;;;6247311;22;20140;-61
2021/06/12 19:06:58;;;;;;;7.07;2.75;;;16.60;94.00;;;;;;6246886;23;20154;-61
2021/06/12 19:09:23;;;;;;;6.20;2.65;;;16.40;95.00;;;;;;6246805;23;20151;-61
2021/06/12 19:11:49;;;;;;;6.70;2.72;;;16.30;95.70;;;;;;6246854;22;20148;-61
2021/06/12 19:14:14;;;;;;;7.05;2.50;;;16.10;97.20;;;;;;6246720;22;20144;-61
2021/06/12 19:16:40;;;;;;;6.85;2.67;;;16.10;98.20;;;;;;6246561;22;20179;-61
2021/06/12 19:19:05;;;;;;;4.72;2.10;;;15.90;99.00;;;;;;6246707;23;20489;-61
2021/06/12 19:21:31;;;;;;;4.72;2.42;;;15.90;99.70;;;;;;6247125;23;20505;-61
2021/06/12 19:23:56;;;;;;;4.25;2.10;;;15.80;99.90;;;;;;6246678;23;20148;-61
2021/06/12 19:26:22;;;;;;;7.25;2.38;;;15.80;99.90;;;;;;6246661;23;20151;-61
2021/06/12 19:28:48;;;;;;;5.40;2.33;;;15.70;99.70;;;;;;6246311;23;20144;-60
2021/06/12 19:31:13;;;;;;;4.88;2.53;;;15.60;99.60;;;;;;6246732;22;20541;-61
2021/06/12 19:33:39;;;;;;;6.07;2.28;;;15.50;99.30;;;;;;6246902;22;20176;-61
2021/06/12 19:39:06;;;;;;;5.78;2.83;;;15.40;99.30;;;;;;6246938;22;20439;-60
2021/06/12 19:41:22;;;;;;;7.78;2.88;;;15.30;99.40;;;;;;6243497;22;20174;-61
2021/06/12 19:43:48;;;;;;;4.95;2.20;;;15.30;99.10;;;;;;6246526;22;20529;-60
2021/06/12 19:46:14;;;;;;;6.18;2.28;;;15.20;99.10;;;;;;6246899;22;20148;-60
2021/06/12 19:48:41;;;;;;;8.73;2.42;;;15.20;98.90;;;;;;6246797;23;20235;-61
2021/06/12 19:51:07;;;;;;;7.43;2.10;;;15.20;98.90;;;;;;6246865;22;20140;-61
2021/06/12 19:53:39;;;;;;;4.18;2.38;;;15.10;98.50;;;;;;6246374;23;20553;-60
2021/06/12 19:56:09;;;;;;;5.75;2.05;;;15.10;98.30;;;;;;6246555;22;20152;-61
2021/06/12 19:58:35;;;;;;;5.55;2.17;;;15.10;98.00;;;;;;6246869;22;20235;-60
2021/06/12 20:01:04;;;;;;;6.18;2.25;;;15.10;97.90;;;;;;6245385;23;20580;-61
2021/06/12 20:03:30;;;;;;;6.18;2.28;;;15.10;97.70;;;;;;6246874;22;20148;-61
2021/06/12 20:05:57;;;;;;;5.85;2.13;;;15.10;97.50;;;;;;6246828;22;20202;-61
2021/06/12 20:08:24;;;;;;;2.33;1.90;;;15.10;97.30;;;;;;6246470;22;20210;-61
2021/06/12 20:10:49;;;;;;;5.47;2.30;;;15.10;97.40;;;;;;6246613;22;20145;-61
2021/06/12 20:13:15;;;;;;;3.67;2.22;;;15.10;97.60;;;;;;6246903;23;20490;-61
2021/06/12 20:15:41;;;;;;;5.07;1.83;;;15.10;97.70;;;;;;6246478;23;20171;-61
2021/06/12 20:18:06;;;;;;;5.28;2.20;;;15.10;97.90;;;;;;6246589;22;20148;-61
2021/06/12 20:20:32;;;;;;;5.25;1.98;;;15.10;98.20;;;;;;6246726;22;20140;-60
2021/06/12 20:22:57;;;;;;;8.40;1.85;;;15.10;98.10;;;;;;6247197;23;20218;-61
2021/06/12 20:25:23;;;;;;;5.85;2.05;;;15.10;98.00;;;;;;6246955;22;20504;-61
2021/06/12 20:27:49;;;;;;;5.28;2.20;;;15.00;98.10;;;;;;6246786;23;20434;-61
2021/06/12 20:30:15;;;;;;;5.80;2.15;;;15.00;98.40;;;;;;6246313;22;20151;-61
2021/06/12 20:32:41;;;;;;;5.65;2.42;;;15.00;98.40;;;;;;6246362;22;20149;-61
2021/06/12 20:35:07;;;;;;;7.32;2.17;;;15.00;98.70;;;;;;6246364;23;20164;-61
2021/06/12 20:37:33;;;;;;;7.10;2.65;;;15.00;98.90;;;;;;6246224;22;20210;-61
2021/06/12 20:39:58;;;;;;;6.05;2.40;;;15.00;99.20;;;;;;6245661;23;20144;-61
2021/06/12 20:42:24;;;;;;;7.47;2.00;;;14.90;99.10;;;;;;6246100;23;20143;-61
2021/06/12 20:44:49;;;;;;;4.10;2.30;;;14.90;98.70;;;;;;6246036;22;20151;-61
2021/06/12 20:47:15;;;;;;;9.00;2.65;;;14.80;98.60;;;;;;6246019;22;20145;-61
2021/06/12 20:49:40;;;;;;;4.75;1.75;;;14.80;98.60;;;;;;6245822;22;20147;-61
2021/06/12 20:52:06;;;;;;;6.68;2.20;;;14.70;98.70;;;;;;6245876;22;20142;-61
2021/06/12 20:54:32;;;;;;;5.78;2.08;;;14.70;98.90;;;;;;6246089;23;20171;-61
2021/06/12 20:56:57;;;;;;;4.47;2.50;;;14.60;99.00;;;;;;6245743;22;20164;-61
2021/06/12 20:59:23;;;;;;;6.07;2.28;;;14.50;99.20;;;;;;6246100;22;20549;-61
2021/06/12 21:01:48;;;;;;;5.75;2.22;;;14.40;99.50;;;;;;6246160;23;20141;-61
2021/06/12 21:04:15;;;;;;;6.85;2.60;;;14.30;99.80;;;;;;6246000;22;20151;-61
2021/06/12 21:06:41;;;;;;;7.20;2.83;;;14.30;99.90;;;;;;6246108;22;20205;-61
2021/06/12 21:09:06;;;;;;;6.35;2.20;;;14.20;99.90;;;;;;6246074;22;20144;-61
2021/06/12 21:11:32;;;;;;;6.20;2.30;;;14.10;99.90;;;;;;6245629;23;20159;-61
2021/06/12 21:13:57;;;;;;;6.78;2.55;;;14.00;99.90;;;;;;6245615;23;20176;-61
2021/06/12 21:16:24;;;;;;;6.05;2.42;;;14.00;99.90;;;;;;6245354;22;20176;-61
2021/06/12 21:18:49;;;;;;;4.55;2.38;;;14.00;99.90;;;;;;6245771;22;20124;-61
2021/06/12 21:21:15;;;;;;;5.13;2.40;;;13.90;99.90;;;;;;6245553;22;20144;-61
2021/06/12 21:23:42;;;;;;;6.28;2.60;;;13.90;99.90;;;;;;6245687;22;20144;-61
2021/06/12 21:26:07;;;;;;;9.68;2.45;;;13.90;99.90;;;;;;6245790;22;20144;-61
2021/06/12 21:28:39;;;;;;;7.65;2.58;;;13.90;99.90;;;;;;6245501;23;20144;-61
2021/06/12 21:31:09;;;;;;;7.65;2.50;;;13.90;99.90;;;;;;6245464;22;20542;-62
2021/06/12 21:33:36;;;;;;;6.05;2.50;;;13.90;99.90;;;;;;6245536;22;20195;-61
2021/06/12 21:36:02;;;;;;;9.60;2.80;;;13.90;99.90;;;;;;6245534;23;20179;-61
2021/06/12 21:38:27;;;;;;;6.10;2.50;;;13.90;99.90;;;;;;6245772;22;20151;-61
2021/06/12 21:40:53;;;;;;;5.28;2.40;;;13.90;99.90;;;;;;6245726;23;20137;-61
2021/06/12 21:43:19;;;;;;;4.95;2.05;;;14.00;99.90;;;;;;6245551;22;20133;-61
2021/06/12 21:45:45;;;;;;;8.55;2.53;;;14.00;99.90;;;;;;6245784;22;20151;-61
2021/06/12 21:48:10;;;;;;;5.25;2.33;;;14.00;99.90;;;;;;6245905;22;20231;-61
2021/06/12 21:50:36;;;;;;;7.90;2.35;;;14.00;99.90;;;;;;6245399;23;20604;-61
2021/06/12 21:53:02;;;;;;;7.45;2.38;;;14.00;99.90;;;;;;6247288;23;20500;-61
2021/06/12 21:55:27;;;;;;;6.22;2.17;;;14.00;99.90;;;;;;6247457;22;20242;-62
2021/06/12 21:57:54;;;;;;;5.15;2.13;;;13.90;99.90;;;;;;6248093;22;20140;-62
2021/06/12 22:00:29;;;;;;;7.43;1.88;;;13.90;99.90;;;;;;6247731;22;20603;-61
2021/06/12 22:02:55;;;;;;;6.55;2.13;;;13.80;99.90;;;;;;6247961;23;20159;-61
2021/06/12 22:05:21;;;;;;;10.02;2.20;;;13.80;99.90;;;;;;6248055;23;20203;-62
2021/06/12 22:07:47;;;;;;;7.72;2.25;;;13.80;99.90;;;;;;6272283;22;20155;-62
2021/06/12 22:10:13;;;;;;;4.03;1.80;;;13.80;99.90;;;;;;6248349;22;20443;-62
2021/06/12 22:12:38;;;;;;;6.30;1.98;;;13.80;99.90;;;;;;6247666;23;20549;-61
2021/06/12 22:15:05;;;;;;;8.27;2.85;;;13.80;99.90;;;;;;6247430;23;20259;-61
2021/06/12 22:17:31;;;;;;;4.90;2.03;;;13.80;99.90;;;;;;6246131;23;20445;-61
2021/06/12 22:19:56;;;;;;;6.72;1.88;;;13.80;99.90;;;;;;6247437;22;20136;-61
2021/06/12 22:22:22;;;;;;;9.13;2.33;;;13.70;99.90;;;;;;6247678;23;20420;-62
2021/06/12 22:24:47;;;;;;;9.85;2.80;;;13.70;99.90;;;;;;6247263;23;20552;-61
2021/06/12 22:27:13;;;;;;;6.93;1.92;;;13.70;99.90;;;;;;6247343;22;20147;-61
2021/06/12 22:29:38;;;;;;;5.78;2.03;;;13.70;99.90;;;;;;6247238;22;20141;-61
2021/06/12 22:32:05;;;;;;;4.43;1.60;;;13.60;99.90;;;;;;6247145;22;20195;-62
2021/06/12 22:34:31;;;;;;;7.40;2.08;;;13.60;99.90;;;;;;6247200;22;20219;-61
2021/06/12 22:36:57;;;;;;;8.20;2.17;;;13.60;99.90;;;;;;6247032;22;20164;-61
2021/06/12 22:39:22;;;;;;;4.18;1.95;;;13.60;99.90;;;;;;6247190;22;20210;-61
2021/06/12 22:41:48;;;;;;;6.32;2.13;;;13.50;99.90;;;;;;6246996;23;20148;-61
2021/06/12 22:44:14;;;;;;;5.30;2.00;;;13.50;99.90;;;;;;6245884;23;20307;-61
2021/06/12 22:46:39;;;;;;;7.88;2.20;;;13.50;99.90;;;;;;6247288;22;20241;-61
2021/06/12 22:49:05;;;;;;;7.22;1.75;;;13.50;99.90;;;;;;6271350;22;20148;-61
2021/06/12 22:51:33;;;;;;;7.68;3.08;;;13.50;99.90;;;;;;6247226;22;20148;-61
2021/06/12 22:53:59;;;;;;;6.72;1.95;;;13.50;99.90;;;;;;6247323;22;20199;-61
2021/06/12 22:56:25;;;;;;;5.82;2.88;;;13.50;99.90;;;;;;6246912;22;20503;-61
2021/06/12 22:58:51;;;;;;;4.82;1.77;;;13.50;99.90;;;;;;6246874;22;20481;-61
2021/06/12 23:01:16;;;;;;;5.82;2.10;;;13.50;99.90;;;;;;6247158;22;20232;-61
2021/06/12 23:03:42;;;;;;;5.32;2.00;;;13.50;99.90;;;;;;6246881;23;20545;-61
2021/06/12 23:06:08;;;;;;;8.50;2.20;;;13.50;99.90;;;;;;6246798;22;20448;-61
2021/06/12 23:08:33;;;;;;;8.23;1.88;;;13.50;99.90;;;;;;6246882;23;20140;-61
2021/06/12 23:10:59;;;;;;;9.85;2.08;;;13.60;99.90;;;;;;6247068;23;20609;-61
2021/06/12 23:13:24;;;;;;;8.63;2.10;;;13.50;99.90;;;;;;6246854;22;20148;-61
2021/06/12 23:15:50;;;;;;;8.45;2.15;;;13.50;99.90;;;;;;6246609;22;20176;-61
2021/06/12 23:18:15;;;;;;;6.78;1.85;;;13.50;99.90;;;;;;6246607;22;20156;-61
2021/06/12 23:20:41;;;;;;;6.70;2.25;;;13.50;99.90;;;;;;6246969;23;20418;-61
2021/06/12 23:23:07;;;;;;;5.93;1.90;;;13.50;99.90;;;;;;6271063;22;20155;-62
2021/06/12 23:25:32;;;;;;;8.43;1.88;;;13.50;99.90;;;;;;6247011;22;20156;-61
2021/06/12 23:27:58;;;;;;;7.35;2.45;;;13.40;99.90;;;;;;6246712;22;20152;-61
2021/06/12 23:30:23;;;;;;;5.90;2.28;;;13.40;99.90;;;;;;6246747;23;20497;-61
2021/06/12 23:32:49;;;;;;;9.00;2.20;;;13.30;99.90;;;;;;6246518;23;20152;-61
2021/06/12 23:35:14;;;;;;;6.00;2.03;;;13.30;99.90;;;;;;6246591;22;20164;-62
2021/06/12 23:37:40;;;;;;;7.80;2.50;;;13.30;99.90;;;;;;6246786;22;20244;-61
2021/06/12 23:40:07;;;;;;;8.38;2.92;;;13.30;99.90;;;;;;6247454;23;20227;-61
2021/06/12 23:42:33;;;;;;;7.85;2.10;;;13.20;99.90;;;;;;6246636;23;20140;-62
2021/06/12 23:44:59;;;;;;;10.93;2.55;;;13.20;99.90;;;;;;6247146;23;20155;-61
2021/06/12 23:47:24;;;;;;;4.10;1.85;;;13.20;99.90;;;;;;6247094;23;20447;-61
2021/06/12 23:49:50;;;;;;;8.85;2.38;;;13.10;99.90;;;;;;6247079;22;20235;-61
2021/06/12 23:52:15;;;;;;;6.85;2.00;;;13.10;99.90;;;;;;6247269;23;20581;-61
2021/06/12 23:54:41;;;;;;;8.13;1.90;;;13.10;99.90;;;;;;6246866;23;20537;-61
2021/06/12 23:57:07;;;;;;;6.47;2.33;;;13.00;99.90;;;;;;6246914;23;20176;-61
2021/06/12 23:59:32;;;;;;;6.80;1.80;;;12.90;99.90;;;;;;6247083;23;20210;-61
